»·PEaware :: N688MA KBFL-KMHV

N688MA :: KBFL-KMHV

FLIGHT INFORMATION

Flight Status: Arrived
Operator: Privately registered:
United States
More flights under this callsign
Pilot: Scott H. (45431)
Aircraft: CESSNA 172 SKYHAWK
(C172)
More flights by this aircraft type
Origin: KBFL Meadows
United States
Destination: KMHV Mojave
United States
More flights between these airports :: More routes between these airports
Route:
File this flight plan on PilotEdge
Remarks:
Altitude:
(Current/Filed)
9,500ft
Speed:
(Current/Filed)
100kts
Departed: 04-Nov-23 11:01 AM
Arrived: 04-Nov-23 11:40 AM
Distance/Time
Traveled:
49nm/0:39
Distance/Time
To Go:
Arrived

Flight Plot

Page will automatically refresh every two minutes.


Map Options




Map Legend


Flown Route
Filed Route
Departure Airport
Arrival Airport
Navaid (VOR, NDB)
Fix

Horizontal Profiles

Position Reports

Time Latitude Longitude Heading Altitude Ground
Speed
04-Nov-23 10:36 35.430800 -119.047428 140 486ft 0kts
04-Nov-23 10:37 35.430800 -119.047428 140 486ft 0kts
04-Nov-23 10:38 35.430800 -119.047428 140 486ft 0kts
04-Nov-23 10:39 35.430800 -119.047428 140 486ft 0kts
04-Nov-23 10:46 35.430645 -119.047633 138 486ft 0kts
04-Nov-23 10:47 35.430645 -119.047633 138 486ft 0kts
04-Nov-23 10:48 35.430645 -119.047633 138 486ft 0kts
04-Nov-23 10:49 35.430645 -119.047633 138 486ft 0kts
04-Nov-23 10:50 35.430645 -119.047633 138 486ft 0kts
04-Nov-23 10:51 35.430645 -119.047633 138 486ft 0kts
04-Nov-23 10:52 35.430645 -119.047633 138 486ft 0kts
04-Nov-23 10:53 35.430645 -119.047633 138 486ft 0kts
04-Nov-23 10:54 35.430645 -119.047633 138 486ft 0kts
04-Nov-23 10:55 35.430645 -119.047633 138 486ft 0kts
04-Nov-23 10:56 35.430587 -119.047593 162 486ft 3kts
04-Nov-23 10:57 35.429078 -119.048167 135 482ft 12kts
04-Nov-23 10:58 35.426306 -119.044812 136 472ft 13kts
04-Nov-23 10:59 35.425761 -119.044734 212 471ft 0kts
04-Nov-23 11:00 35.426392 -119.047308 316 480ft 37kts
04-Nov-23 11:01 35.441914 -119.067467 313 1040ft 89kts
04-Nov-23 11:02 35.460865 -119.075246 41 1885ft 91kts
04-Nov-23 11:03 35.454517 -119.050490 133 2707ft 92kts
04-Nov-23 11:04 35.436945 -119.026954 134 3443ft 94kts
04-Nov-23 11:04 35.422200 -119.007551 134 4109ft 84kts
04-Nov-23 11:06 35.404098 -118.983140 133 4920ft 83kts
04-Nov-23 11:07 35.392157 -118.958753 119 5555ft 84kts
04-Nov-23 11:08 35.381179 -118.932654 117 6109ft 88kts
04-Nov-23 11:09 35.370084 -118.905512 117 6658ft 89kts
04-Nov-23 11:09 35.360790 -118.882745 117 7067ft 90kts
04-Nov-23 11:10 35.349549 -118.855208 117 7478ft 90kts
04-Nov-23 11:11 35.338196 -118.827427 117 7855ft 91kts
04-Nov-23 11:12 35.326820 -118.799594 117 8153ft 91kts
04-Nov-23 11:14 35.313428 -118.766898 117 8420ft 92kts
04-Nov-23 11:14 35.309742 -118.741059 99 8603ft 92kts
04-Nov-23 11:15 35.305768 -118.709875 99 8767ft 93kts
04-Nov-23 11:16 35.301760 -118.678450 99 8910ft 93kts
04-Nov-23 11:17 35.295912 -118.647593 105 9028ft 93kts
04-Nov-23 11:18 35.289292 -118.616849 105 9129ft 93kts
04-Nov-23 11:19 35.282636 -118.586026 105 9168ft 93kts
04-Nov-23 11:20 35.276020 -118.555277 105 9235ft 94kts
04-Nov-23 11:21 35.268985 -118.522414 105 9473ft 112kts
04-Nov-23 11:22 35.258203 -118.484714 110 9526ft 120kts
04-Nov-23 11:23 35.242383 -118.448613 127 9543ft 116kts
04-Nov-23 11:24 35.226906 -118.422602 127 8862ft 94kts
04-Nov-23 11:25 35.209897 -118.394194 127 7732ft 110kts
04-Nov-23 11:26 35.191613 -118.363836 127 6783ft 92kts
04-Nov-23 11:27 35.173745 -118.346900 148 6813ft 90kts
04-Nov-23 11:28 35.148988 -118.326904 161 6798ft 112kts
04-Nov-23 11:29 35.118921 -118.313926 157 6748ft 122kts
04-Nov-23 11:30 35.104951 -118.280357 93 6506ft 106kts
04-Nov-23 11:31 35.098665 -118.247305 116 5637ft 98kts
04-Nov-23 11:32 35.088203 -118.211626 88 4005ft 120kts
04-Nov-23 11:33 35.082156 -118.181598 110 3725ft 78kts
04-Nov-23 11:34 35.077122 -118.155654 91 3744ft 78kts
04-Nov-23 11:35 35.076819 -118.129012 92 3762ft 89kts
04-Nov-23 11:36 35.072047 -118.103658 179 3738ft 80kts
04-Nov-23 11:37 35.058951 -118.122142 272 3092ft 78kts
04-Nov-23 11:38 35.059175 -118.145802 271 2752ft 64kts
04-Nov-23 11:39 35.059224 -118.155912 270 2761ft 15kts
04-Nov-23 11:40 35.057828 -118.157815 205 2768ft 7kts
04-Nov-23 11:41 35.057395 -118.160818 267 2774ft 0kts

Navigation Log

Ident Type
Flight plan parsing failed, navigation log unavailable